Time;durP1;ratioP1;P1;durP2;ratioP2;P2;SDS_P1;SDS_P2;PMS_P1;PMS_P2;Temp;Humidity;BMP_temperature;BMP_pressure;BME280_temperature;BME280_humidity;BME280_pressure;Samples;Min_cycle;Max_cycle;Signal;HPM_P1;HPM_P2
2023/08/18 00:00:13;;;;;;;56.47;2.30;;;;;;;;;;5051295;28;20452;-68
2023/08/18 00:02:40;;;;;;;56.30;2.00;;;;;;;;;;5050976;28;20444;-69
2023/08/18 00:05:08;;;;;;;56.60;2.53;;;;;;;;;;5051124;28;20472;-69
2023/08/18 00:07:35;;;;;;;56.97;3.00;;;;;;;;;;5051279;28;20458;-68
2023/08/18 00:10:03;;;;;;;56.27;2.10;;;;;;;;;;5051026;28;21003;-68
2023/08/18 00:12:30;;;;;;;56.57;2.40;;;;;;;;;;5050784;28;20960;-69
2023/08/18 00:14:57;;;;;;;56.37;2.10;;;;;;;;;;5051045;28;20464;-68
2023/08/18 00:17:25;;;;;;;57.00;2.50;;;;;;;;;;5050902;28;20451;-68
2023/08/18 00:19:53;;;;;;;57.97;2.20;;;;;;;;;;5051032;28;20941;-68
2023/08/18 00:22:20;;;;;;;56.80;2.83;;;;;;;;;;5051113;28;20444;-68
2023/08/18 00:24:47;;;;;;;56.17;2.30;;;;;;;;;;5051012;28;20460;-69
2023/08/18 00:27:14;;;;;;;57.50;2.57;;;;;;;;;;5050867;28;20454;-69
2023/08/18 00:29:41;;;;;;;56.70;2.47;;;;;;;;;;5050875;28;20458;-68
2023/08/18 00:32:08;;;;;;;56.70;2.50;;;;;;;;;;5050612;28;20441;-69
2023/08/18 00:34:37;;;;;;;56.50;2.20;;;;;;;;;;5050802;28;20479;-69
2023/08/18 00:37:04;;;;;;;56.70;2.20;;;;;;;;;;5050815;28;20491;-69
2023/08/18 00:39:31;;;;;;;56.93;2.50;;;;;;;;;;5050938;28;20455;-68
2023/08/18 00:41:58;;;;;;;56.50;2.57;;;;;;;;;;5050661;28;20436;-69
2023/08/18 00:44:25;;;;;;;56.90;2.50;;;;;;;;;;5050659;28;20464;-69
2023/08/18 00:46:52;;;;;;;56.80;2.10;;;;;;;;;;5050915;28;20440;-69
2023/08/18 00:49:20;;;;;;;56.70;2.20;;;;;;;;;;5050960;28;20820;-69
2023/08/18 00:51:49;;;;;;;56.60;2.30;;;;;;;;;;5050572;28;20852;-69
2023/08/18 00:54:17;;;;;;;56.60;2.10;;;;;;;;;;5053636;28;20999;-69
2023/08/18 00:56:45;;;;;;;57.00;2.50;;;;;;;;;;5054640;28;20440;-69
2023/08/18 00:59:13;;;;;;;57.10;2.93;;;;;;;;;;5054495;28;20494;-69
2023/08/18 01:01:41;;;;;;;56.60;2.30;;;;;;;;;;5054549;28;20442;-69
2023/08/18 01:04:08;;;;;;;56.67;2.77;;;;;;;;;;5054608;28;20749;-69
2023/08/18 01:06:38;;;;;;;57.03;2.30;;;;;;;;;;5054462;28;20447;-69
2023/08/18 01:09:07;;;;;;;57.10;2.53;;;;;;;;;;5054379;28;20470;-69
2023/08/18 01:11:38;;;;;;;65.90;4.23;;;;;;;;;;5054127;28;20480;-69
2023/08/18 01:14:15;;;;;;;57.20;2.70;;;;;;;;;;5054576;28;20825;-69
2023/08/18 01:16:44;;;;;;;56.47;2.37;;;;;;;;;;5054375;28;20490;-69
2023/08/18 01:19:13;;;;;;;59.20;2.60;;;;;;;;;;5054284;28;20440;-69
2023/08/18 01:21:43;;;;;;;57.47;2.60;;;;;;;;;;5053866;28;20454;-69
2023/08/18 01:24:11;;;;;;;56.50;2.50;;;;;;;;;;5053937;28;20470;-68
2023/08/18 01:26:38;;;;;;;56.47;2.10;;;;;;;;;;5054177;28;20453;-69
2023/08/18 01:29:05;;;;;;;57.43;2.50;;;;;;;;;;5054159;28;20451;-68
2023/08/18 01:31:33;;;;;;;59.73;2.67;;;;;;;;;;5053823;28;20480;-69
2023/08/18 01:34:03;;;;;;;56.90;2.40;;;;;;;;;;5053844;28;20550;-69
2023/08/18 01:36:33;;;;;;;57.57;2.37;;;;;;;;;;5053823;28;20822;-68
2023/08/18 01:39:01;;;;;;;57.40;3.03;;;;;;;;;;5054127;28;20450;-68
2023/08/18 01:41:32;;;;;;;56.40;2.60;;;;;;;;;;5054011;28;20447;-69
2023/08/18 01:44:00;;;;;;;56.33;2.40;;;;;;;;;;5053678;28;20525;-69
2023/08/18 01:46:27;;;;;;;56.80;2.50;;;;;;;;;;5052106;28;20471;-68
2023/08/18 01:48:55;;;;;;;56.70;2.53;;;;;;;;;;5053601;28;20432;-69
2023/08/18 01:51:22;;;;;;;57.10;2.80;;;;;;;;;;5053664;28;20487;-69
2023/08/18 01:53:49;;;;;;;56.97;2.50;;;;;;;;;;5053475;28;20465;-69
2023/08/18 01:56:16;;;;;;;57.87;2.90;;;;;;;;;;5053618;28;20448;-68
2023/08/18 01:58:44;;;;;;;58.33;3.60;;;;;;;;;;5053480;28;20936;-69
2023/08/18 02:01:12;;;;;;;57.17;2.80;;;;;;;;;;5053447;28;20444;-68
2023/08/18 02:03:39;;;;;;;57.00;2.57;;;;;;;;;;5052811;28;20558;-68
2023/08/18 02:06:06;;;;;;;57.50;2.70;;;;;;;;;;5052437;28;20441;-69
2023/08/18 02:08:33;;;;;;;56.63;2.47;;;;;;;;;;5053418;28;20467;-69
2023/08/18 02:11:04;;;;;;;57.50;3.00;;;;;;;;;;5053261;28;20483;-69
2023/08/18 02:13:31;;;;;;;56.90;2.77;;;;;;;;;;5052926;28;20468;-69
2023/08/18 02:15:59;;;;;;;56.87;2.33;;;;;;;;;;5053000;28;20886;-68
2023/08/18 02:18:26;;;;;;;56.57;3.07;;;;;;;;;;5053314;28;20445;-68
2023/08/18 02:20:56;;;;;;;58.17;3.33;;;;;;;;;;5053226;28;20527;-68
2023/08/18 02:23:24;;;;;;;59.77;3.17;;;;;;;;;;5052839;28;20464;-69
2023/08/18 02:25:51;;;;;;;57.67;3.30;;;;;;;;;;5052836;28;20448;-68
2023/08/18 02:28:18;;;;;;;57.20;2.60;;;;;;;;;;5052994;28;20444;-68
2023/08/18 02:30:46;;;;;;;56.47;2.30;;;;;;;;;;5053214;28;20488;-68
2023/08/18 02:33:14;;;;;;;57.57;3.20;;;;;;;;;;5052731;28;20495;-68
2023/08/18 02:35:43;;;;;;;57.93;3.33;;;;;;;;;;5052987;28;20441;-68
2023/08/18 02:38:14;;;;;;;56.47;2.50;;;;;;;;;;5052634;28;20459;-69
2023/08/18 02:40:41;;;;;;;57.07;3.07;;;;;;;;;;5052761;28;20448;-69
2023/08/18 02:43:09;;;;;;;57.07;3.00;;;;;;;;;;5052332;28;20448;-69
2023/08/18 02:45:36;;;;;;;56.57;2.47;;;;;;;;;;5052719;28;20448;-69
2023/08/18 02:48:03;;;;;;;56.67;2.47;;;;;;;;;;5052707;28;20450;-69
2023/08/18 02:50:31;;;;;;;57.10;3.13;;;;;;;;;;5052369;28;20955;-68
2023/08/18 02:53:00;;;;;;;56.87;2.77;;;;;;;;;;5052253;28;20451;-69
2023/08/18 02:55:28;;;;;;;57.50;2.70;;;;;;;;;;5052331;28;20504;-68
2023/08/18 02:57:55;;;;;;;56.90;2.70;;;;;;;;;;5052350;28;20509;-68
2023/08/18 03:00:22;;;;;;;56.57;2.40;;;;;;;;;;5052571;28;20444;-68
2023/08/18 03:02:50;;;;;;;57.63;3.37;;;;;;;;;;5052208;28;20444;-68
2023/08/18 03:05:17;;;;;;;56.80;2.60;;;;;;;;;;5052202;28;20904;-68
2023/08/18 03:07:45;;;;;;;56.73;2.30;;;;;;;;;;5052151;28;20448;-68
2023/08/18 03:10:13;;;;;;;56.60;2.60;;;;;;;;;;5052086;28;20441;-68
2023/08/18 03:12:40;;;;;;;57.10;2.60;;;;;;;;;;5051956;28;20491;-68
2023/08/18 03:15:07;;;;;;;57.17;3.10;;;;;;;;;;5052076;28;20835;-68
2023/08/18 03:17:34;;;;;;;56.60;2.37;;;;;;;;;;5051770;28;20506;-68
2023/08/18 03:20:04;;;;;;;56.50;2.20;;;;;;;;;;5051854;28;20970;-69
2023/08/18 03:22:34;;;;;;;57.00;2.93;;;;;;;;;;5051627;28;20448;-68
2023/08/18 03:25:03;;;;;;;61.23;4.17;;;;;;;;;;5051754;28;20468;-68
2023/08/18 03:27:30;;;;;;;57.67;2.40;;;;;;;;;;5051930;28;20445;-68
2023/08/18 03:29:57;;;;;;;56.60;2.20;;;;;;;;;;5052177;28;20455;-68
2023/08/18 03:32:25;;;;;;;57.03;2.60;;;;;;;;;;5051314;28;20487;-68
2023/08/18 03:34:53;;;;;;;56.90;2.47;;;;;;;;;;5051628;28;20486;-68
2023/08/18 03:37:21;;;;;;;56.50;2.20;;;;;;;;;;5051497;28;20457;-68
2023/08/18 03:39:48;;;;;;;56.57;2.30;;;;;;;;;;5051857;28;20527;-68
2023/08/18 03:42:16;;;;;;;57.00;2.93;;;;;;;;;;5051467;28;20475;-68
2023/08/18 03:44:43;;;;;;;56.80;2.40;;;;;;;;;;5051424;28;20464;-68
2023/08/18 03:47:10;;;;;;;56.97;2.50;;;;;;;;;;5051540;28;20448;-68
2023/08/18 03:49:37;;;;;;;56.80;2.30;;;;;;;;;;5051432;28;20443;-69
2023/08/18 03:52:05;;;;;;;58.47;2.80;;;;;;;;;;5051005;28;20488;-68
2023/08/18 03:54:32;;;;;;;56.80;2.57;;;;;;;;;;5051287;28;20468;-68
2023/08/18 03:56:59;;;;;;;56.70;2.80;;;;;;;;;;5051468;28;20446;-68
2023/08/18 03:59:27;;;;;;;57.47;2.80;;;;;;;;;;5051413;28;20451;-68
2023/08/18 04:01:54;;;;;;;56.77;2.30;;;;;;;;;;5050986;28;20436;-68
2023/08/18 04:04:21;;;;;;;56.87;2.47;;;;;;;;;;5050941;28;20472;-68
2023/08/18 04:06:48;;;;;;;56.73;2.27;;;;;;;;;;5051394;28;20523;-68
2023/08/18 04:09:16;;;;;;;56.97;2.63;;;;;;;;;;5051382;28;20448;-68
2023/08/18 04:11:43;;;;;;;56.87;2.70;;;;;;;;;;5050922;28;20533;-68
2023/08/18 04:14:11;;;;;;;63.47;3.87;;;;;;;;;;5051070;28;20515;-68
2023/08/18 04:16:39;;;;;;;57.07;2.87;;;;;;;;;;5051025;28;20535;-69
2023/08/18 04:19:07;;;;;;;57.30;3.00;;;;;;;;;;5051050;28;20962;-68
2023/08/18 04:21:34;;;;;;;56.77;2.37;;;;;;;;;;5051093;28;20444;-68
2023/08/18 04:24:01;;;;;;;56.70;2.40;;;;;;;;;;5050920;28;20464;-68
2023/08/18 04:26:29;;;;;;;57.07;2.40;;;;;;;;;;5050933;28;20450;-68
2023/08/18 04:28:56;;;;;;;56.77;2.60;;;;;;;;;;5053655;28;20466;-69
2023/08/18 04:31:23;;;;;;;56.77;2.43;;;;;;;;;;5055006;28;20480;-68
2023/08/18 04:33:51;;;;;;;58.60;3.60;;;;;;;;;;5055174;28;20547;-68
2023/08/18 04:36:19;;;;;;;57.30;3.10;;;;;;;;;;5055117;28;20444;-69
2023/08/18 04:38:46;;;;;;;56.77;2.63;;;;;;;;;;5054963;28;20593;-68
2023/08/18 04:41:13;;;;;;;56.73;2.40;;;;;;;;;;5055014;28;20443;-68
2023/08/18 04:43:40;;;;;;;56.73;2.60;;;;;;;;;;5054534;28;20467;-68
2023/08/18 04:46:07;;;;;;;56.60;2.40;;;;;;;;;;5054691;28;20944;-69
2023/08/18 04:48:34;;;;;;;57.00;2.93;;;;;;;;;;5055010;28;20828;-69
2023/08/18 04:51:03;;;;;;;56.57;2.60;;;;;;;;;;5054850;28;20440;-68
2023/08/18 04:53:30;;;;;;;60.60;3.73;;;;;;;;;;5054461;28;20471;-68
2023/08/18 04:55:57;;;;;;;57.20;2.70;;;;;;;;;;5054664;28;20450;-69
2023/08/18 04:58:24;;;;;;;56.77;2.73;;;;;;;;;;5054631;28;20451;-69
2023/08/18 05:00:53;;;;;;;56.70;2.30;;;;;;;;;;5054533;28;20448;-69
2023/08/18 05:03:20;;;;;;;56.80;2.50;;;;;;;;;;5054355;28;20464;-69
2023/08/18 05:05:59;;;;;;;59.43;4.73;;;;;;;;;;5054608;28;20440;-69
2023/08/18 05:08:27;;;;;;;56.77;2.40;;;;;;;;;;5054448;28;20451;-69
2023/08/18 05:10:54;;;;;;;57.97;3.23;;;;;;;;;;5054330;28;20941;-69
2023/08/18 05:13:21;;;;;;;57.37;2.57;;;;;;;;;;5053957;28;20488;-69
2023/08/18 05:15:49;;;;;;;58.13;3.00;;;;;;;;;;5054210;28;20467;-69
2023/08/18 05:18:16;;;;;;;56.90;2.40;;;;;;;;;;5054424;28;20859;-69
2023/08/18 05:20:43;;;;;;;57.00;2.87;;;;;;;;;;5054376;28;20454;-69
2023/08/18 05:23:10;;;;;;;56.80;2.80;;;;;;;;;;5054278;28;20440;-69
2023/08/18 05:25:39;;;;;;;56.57;2.33;;;;;;;;;;5054048;28;20510;-69
2023/08/18 05:28:06;;;;;;;56.70;2.43;;;;;;;;;;5054347;28;20451;-69
2023/08/18 05:30:33;;;;;;;57.00;2.60;;;;;;;;;;5054175;28;20450;-68
2023/08/18 05:33:00;;;;;;;56.77;2.50;;;;;;;;;;5053580;28;20483;-68
2023/08/18 05:35:28;;;;;;;57.30;2.50;;;;;;;;;;5053970;28;20451;-69
2023/08/18 05:37:55;;;;;;;56.33;2.33;;;;;;;;;;5053798;28;20460;-68
2023/08/18 05:40:22;;;;;;;56.50;2.30;;;;;;;;;;5053514;28;20444;-69
2023/08/18 05:42:50;;;;;;;57.20;2.87;;;;;;;;;;5053738;28;20447;-69
2023/08/18 05:45:17;;;;;;;57.20;2.90;;;;;;;;;;5053589;28;20470;-69
2023/08/18 05:47:44;;;;;;;56.90;2.43;;;;;;;;;;5053789;28;20452;-69
2023/08/18 05:50:12;;;;;;;56.77;2.63;;;;;;;;;;5053750;28;20451;-69
2023/08/18 05:52:39;;;;;;;56.50;2.30;;;;;;;;;;5053218;28;20479;-69
2023/08/18 05:55:07;;;;;;;57.00;2.90;;;;;;;;;;5053751;28;20470;-68
2023/08/18 05:57:36;;;;;;;56.80;2.60;;;;;;;;;;5053686;28;20495;-68
2023/08/18 06:00:06;;;;;;;56.57;2.60;;;;;;;;;;5053776;28;20801;-69
2023/08/18 06:02:33;;;;;;;56.70;2.43;;;;;;;;;;5053324;28;20452;-68
2023/08/18 06:05:00;;;;;;;56.67;2.37;;;;;;;;;;5053358;28;20468;-68
2023/08/18 06:07:27;;;;;;;56.57;2.47;;;;;;;;;;5053492;28;20797;-68
2023/08/18 06:09:55;;;;;;;56.90;2.50;;;;;;;;;;5053734;28;20444;-68
2023/08/18 06:12:22;;;;;;;56.70;2.57;;;;;;;;;;5053126;28;20494;-69
2023/08/18 06:14:49;;;;;;;58.23;3.13;;;;;;;;;;5053280;28;20847;-69
2023/08/18 06:17:17;;;;;;;58.10;4.17;;;;;;;;;;5053549;28;20447;-69
2023/08/18 06:19:44;;;;;;;56.80;2.80;;;;;;;;;;5053539;28;20448;-69
2023/08/18 06:22:11;;;;;;;56.53;2.30;;;;;;;;;;5053088;28;20442;-69
2023/08/18 06:24:39;;;;;;;56.87;2.80;;;;;;;;;;5053213;28;20468;-69
2023/08/18 06:27:06;;;;;;;56.70;2.50;;;;;;;;;;5053046;28;20480;-69
2023/08/18 06:29:33;;;;;;;56.80;2.93;;;;;;;;;;5053019;28;20448;-69
2023/08/18 06:32:00;;;;;;;56.70;2.60;;;;;;;;;;5052482;28;20996;-69
2023/08/18 06:34:29;;;;;;;56.50;2.53;;;;;;;;;;5052756;28;20470;-69
2023/08/18 06:36:56;;;;;;;57.17;2.63;;;;;;;;;;5052602;28;20955;-69
2023/08/18 06:39:23;;;;;;;56.23;2.20;;;;;;;;;;5052934;28;20444;-69
2023/08/18 06:41:50;;;;;;;56.60;2.30;;;;;;;;;;5052563;28;20447;-69
2023/08/18 06:44:17;;;;;;;56.47;2.30;;;;;;;;;;5052735;28;20460;-69
2023/08/18 06:46:44;;;;;;;56.60;2.73;;;;;;;;;;5052570;28;20445;-69
2023/08/18 06:49:11;;;;;;;56.27;2.00;;;;;;;;;;5052478;28;20449;-69
2023/08/18 06:51:40;;;;;;;56.40;1.90;;;;;;;;;;5051787;28;20449;-69
2023/08/18 06:54:07;;;;;;;56.60;2.40;;;;;;;;;;5052393;28;20456;-69
2023/08/18 06:56:34;;;;;;;56.33;2.40;;;;;;;;;;5052438;28;20878;-69
2023/08/18 06:59:01;;;;;;;56.77;2.40;;;;;;;;;;5052275;28;20436;-69
2023/08/18 07:01:30;;;;;;;56.40;2.07;;;;;;;;;;5052266;28;20447;-69
2023/08/18 07:03:57;;;;;;;57.20;2.97;;;;;;;;;;5052212;28;20460;-69
2023/08/18 07:06:24;;;;;;;56.33;2.13;;;;;;;;;;5052344;28;20447;-69
2023/08/18 07:08:52;;;;;;;55.77;1.77;;;;;;;;;;5052236;28;20443;-69
2023/08/18 07:11:19;;;;;;;56.37;2.23;;;;;;;;;;5052211;28;20527;-69
2023/08/18 07:13:46;;;;;;;56.17;2.27;;;;;;;;;;5051673;28;21021;-69
2023/08/18 07:16:14;;;;;;;56.47;2.10;;;;;;;;;;5051945;28;20450;-69
2023/08/18 07:18:41;;;;;;;56.30;2.47;;;;;;;;;;5052011;28;20455;-69
2023/08/18 07:21:08;;;;;;;56.70;2.27;;;;;;;;;;5052094;28;20444;-69
2023/08/18 07:23:35;;;;;;;57.63;2.17;;;;;;;;;;5051725;28;20486;-69
2023/08/18 07:26:04;;;;;;;56.20;1.70;;;;;;;;;;5051871;28;20445;-69
2023/08/18 07:28:31;;;;;;;56.90;2.40;;;;;;;;;;5051731;28;20448;-69
2023/08/18 07:31:03;;;;;;;56.50;2.10;;;;;;;;;;5052011;28;20506;-69
2023/08/18 07:33:30;;;;;;;56.30;2.43;;;;;;;;;;5051555;28;20495;-69
2023/08/18 07:35:57;;;;;;;56.50;2.03;;;;;;;;;;5052000;28;20942;-69
2023/08/18 07:38:25;;;;;;;56.80;2.20;;;;;;;;;;5051551;28;20460;-69
2023/08/18 07:40:53;;;;;;;58.30;2.30;;;;;;;;;;5051637;28;20440;-69
2023/08/18 07:43:21;;;;;;;56.10;2.20;;;;;;;;;;5051166;28;20984;-69
2023/08/18 07:45:48;;;;;;;56.07;1.70;;;;;;;;;;5051671;28;20451;-67
2023/08/18 07:48:15;;;;;;;56.57;2.27;;;;;;;;;;5051660;28;20444;-68
2023/08/18 07:50:43;;;;;;;56.50;2.63;;;;;;;;;;5051458;28;20960;-67
2023/08/18 07:53:10;;;;;;;57.67;2.60;;;;;;;;;;5050970;28;20476;-68
2023/08/18 07:55:37;;;;;;;56.90;2.20;;;;;;;;;;5051207;28;20466;-67
2023/08/18 07:58:04;;;;;;;56.20;2.17;;;;;;;;;;5051528;28;20854;-67
2023/08/18 08:00:33;;;;;;;56.30;2.10;;;;;;;;;;5051332;28;20451;-68
2023/08/18 08:03:00;;;;;;;56.47;2.30;;;;;;;;;;5051081;28;20440;-67
2023/08/18 08:05:27;;;;;;;57.37;3.87;;;;;;;;;;5051219;28;20797;-67
2023/08/18 08:07:54;;;;;;;55.97;2.40;;;;;;;;;;5051223;28;20443;-67
2023/08/18 08:10:22;;;;;;;56.60;2.40;;;;;;;;;;5051115;28;20452;-67
2023/08/18 08:12:49;;;;;;;56.50;2.40;;;;;;;;;;5050968;28;20495;-67
2023/08/18 08:15:17;;;;;;;59.13;2.30;;;;;;;;;;5051045;28;20471;-67
2023/08/18 08:17:45;;;;;;;56.60;2.20;;;;;;;;;;5051207;28;20490;-67
2023/08/18 08:20:15;;;;;;;56.20;1.80;;;;;;;;;;5051005;28;20932;-67
2023/08/18 08:22:42;;;;;;;56.20;2.00;;;;;;;;;;5050682;28;20444;-68
2023/08/18 08:25:10;;;;;;;56.20;2.13;;;;;;;;;;5050985;28;20472;-67
2023/08/18 08:27:37;;;;;;;56.07;1.97;;;;;;;;;;5050908;28;20475;-67
2023/08/18 08:30:05;;;;;;;57.20;2.27;;;;;;;;;;5050947;28;20448;-67
2023/08/18 08:32:32;;;;;;;56.37;2.00;;;;;;;;;;5050644;28;20570;-68
2023/08/18 08:35:01;;;;;;;64.90;2.93;;;;;;;;;;5050916;28;20525;-71
2023/08/18 08:37:28;;;;;;;56.20;1.80;;;;;;;;;;5050688;28;20561;-69
2023/08/18 08:39:55;;;;;;;56.10;2.20;;;;;;;;;;5051093;28;20444;-68
2023/08/18 08:42:23;;;;;;;57.00;2.13;;;;;;;;;;5050727;28;20448;-68
2023/08/18 08:44:51;;;;;;;56.27;2.10;;;;;;;;;;5050720;28;20472;-68
2023/08/18 08:47:19;;;;;;;56.10;1.90;;;;;;;;;;5050745;28;20937;-68
2023/08/18 08:49:47;;;;;;;56.17;1.80;;;;;;;;;;5050684;28;20844;-69
2023/08/18 08:52:16;;;;;;;56.40;2.20;;;;;;;;;;5050422;28;20458;-69
2023/08/18 08:54:46;;;;;;;56.10;1.93;;;;;;;;;;5050827;28;20474;-69
2023/08/18 08:57:14;;;;;;;57.07;2.70;;;;;;;;;;5050997;28;20454;-69
2023/08/18 08:59:41;;;;;;;55.97;1.90;;;;;;;;;;5050771;28;20444;-69
2023/08/18 09:02:08;;;;;;;65.47;3.63;;;;;;;;;;5050525;28;20458;-68
2023/08/18 09:04:35;;;;;;;56.40;2.10;;;;;;;;;;5050552;28;20829;-68
2023/08/18 09:07:02;;;;;;;56.17;1.83;;;;;;;;;;5050780;28;20450;-69
2023/08/18 09:09:31;;;;;;;56.70;2.20;;;;;;;;;;5050785;28;20451;-68
2023/08/18 09:12:05;;;;;;;56.27;2.30;;;;;;;;;;5050403;28;20470;-69
2023/08/18 09:14:34;;;;;;;56.43;1.90;;;;;;;;;;5052348;28;20493;-68
2023/08/18 09:17:01;;;;;;;55.97;2.30;;;;;;;;;;5054276;28;20458;-69
2023/08/18 09:19:28;;;;;;;56.20;2.03;;;;;;;;;;5054511;28;20444;-69
2023/08/18 09:21:57;;;;;;;56.27;1.87;;;;;;;;;;5053891;28;20551;-69
2023/08/18 09:24:25;;;;;;;56.70;2.20;;;;;;;;;;5054523;28;20531;-69
2023/08/18 09:26:53;;;;;;;56.07;1.80;;;;;;;;;;5054103;28;20474;-70
2023/08/18 09:29:20;;;;;;;56.17;1.60;;;;;;;;;;5054037;28;20444;-70
2023/08/18 09:31:47;;;;;;;56.07;2.27;;;;;;;;;;5053996;28;20447;-70
2023/08/18 09:34:20;;;;;;;56.17;2.10;;;;;;;;;;5054070;28;20511;-70
2023/08/18 09:36:52;;;;;;;55.80;1.90;;;;;;;;;;5053957;28;20448;-69
2023/08/18 09:39:20;;;;;;;55.80;1.80;;;;;;;;;;5054033;28;20448;-70
2023/08/18 09:41:47;;;;;;;56.27;2.00;;;;;;;;;;5053600;28;20813;-69
2023/08/18 09:44:15;;;;;;;56.27;1.93;;;;;;;;;;5053945;28;20460;-70
2023/08/18 09:46:43;;;;;;;56.20;2.07;;;;;;;;;;5053939;28;20840;-70
2023/08/18 09:49:12;;;;;;;56.67;1.93;;;;;;;;;;5053822;28;20447;-70
2023/08/18 09:51:38;;;;;;;56.07;1.83;;;;;;;;;;5053590;28;20450;-70
2023/08/18 09:54:07;;;;;;;56.07;1.90;;;;;;;;;;5053584;28;20813;-67
2023/08/18 09:56:37;;;;;;;56.40;1.83;;;;;;;;;;5053327;28;20444;-67
2023/08/18 09:59:11;;;;;;;56.00;1.60;;;;;;;;;;5053788;28;20752;-67
2023/08/18 10:01:40;;;;;;;56.57;1.80;;;;;;;;;;5053451;28;20455;-68
2023/08/18 10:04:09;;;;;;;55.80;1.90;;;;;;;;;;5053390;28;20460;-67
2023/08/18 10:06:39;;;;;;;56.00;1.90;;;;;;;;;;5053255;28;20948;-67
2023/08/18 10:09:06;;;;;;;56.17;1.83;;;;;;;;;;5053805;28;20447;-70
2023/08/18 10:11:36;;;;;;;55.97;2.07;;;;;;;;;;5053404;28;20440;-70
2023/08/18 10:14:04;;;;;;;55.97;2.03;;;;;;;;;;5053005;28;20548;-70
2023/08/18 10:16:31;;;;;;;55.57;1.70;;;;;;;;;;5053215;28;20444;-68
2023/08/18 10:18:59;;;;;;;55.77;2.00;;;;;;;;;;5053300;28;20474;-68
2023/08/18 10:21:27;;;;;;;56.20;2.27;;;;;;;;;;5053060;28;20436;-69
2023/08/18 10:23:54;;;;;;;58.07;2.63;;;;;;;;;;5053027;28;20464;-69
2023/08/18 10:26:24;;;;;;;55.90;2.33;;;;;;;;;;5052082;28;20472;-70
2023/08/18 10:28:53;;;;;;;55.47;2.17;;;;;;;;;;5053100;28;20455;-70
2023/08/18 10:31:21;;;;;;;56.63;1.80;;;;;;;;;;5052880;28;20455;-70
2023/08/18 10:33:49;;;;;;;55.40;2.20;;;;;;;;;;5052562;28;20488;-70
2023/08/18 10:36:21;;;;;;;54.93;1.70;;;;;;;;;;5053119;28;20443;-70
2023/08/18 10:38:51;;;;;;;54.77;1.60;;;;;;;;;;5052690;28;20467;-70
2023/08/18 10:41:26;;;;;;;55.97;2.00;;;;;;;;;;5053103;28;20479;-70
2023/08/18 10:43:56;;;;;;;55.40;2.43;;;;;;;;;;5052526;28;20464;-70
2023/08/18 10:46:25;;;;;;;54.97;1.70;;;;;;;;;;5052563;28;20542;-71
2023/08/18 10:48:53;;;;;;;55.40;1.80;;;;;;;;;;5052846;28;20472;-71
2023/08/18 10:51:22;;;;;;;55.07;1.87;;;;;;;;;;5052925;28;20451;-71
2023/08/18 10:53:50;;;;;;;54.90;1.93;;;;;;;;;;5052246;28;20488;-71
2023/08/18 10:56:17;;;;;;;54.93;1.90;;;;;;;;;;5052491;28;20450;-71
2023/08/18 10:58:44;;;;;;;56.47;2.43;;;;;;;;;;5052416;28;20940;-70
2023/08/18 11:01:11;;;;;;;54.60;1.40;;;;;;;;;;5052335;28;20448;-70
2023/08/18 11:03:40;;;;;;;54.70;1.67;;;;;;;;;;5052086;28;20460;-71
2023/08/18 11:06:07;;;;;;;55.40;2.23;;;;;;;;;;5052341;28;20449;-68
2023/08/18 11:08:36;;;;;;;54.97;2.20;;;;;;;;;;5052272;28;20459;-69
2023/08/18 11:11:03;;;;;;;55.07;1.93;;;;;;;;;;5052242;28;20448;-69
2023/08/18 11:13:30;;;;;;;54.70;1.70;;;;;;;;;;5051715;28;20494;-69
2023/08/18 11:15:58;;;;;;;54.90;1.70;;;;;;;;;;5052281;28;20607;-69
2023/08/18 11:18:25;;;;;;;55.20;1.90;;;;;;;;;;5052318;28;20483;-69
2023/08/18 11:20:53;;;;;;;54.57;1.60;;;;;;;;;;5052191;28;20440;-69
2023/08/18 11:23:20;;;;;;;54.40;1.80;;;;;;;;;;5051840;28;20461;-69
2023/08/18 11:25:49;;;;;;;54.97;2.00;;;;;;;;;;5052151;28;20517;-69
2023/08/18 11:28:16;;;;;;;54.40;1.60;;;;;;;;;;5051914;28;20436;-69
2023/08/18 11:30:44;;;;;;;54.47;1.60;;;;;;;;;;5052156;28;20444;-69
2023/08/18 11:33:12;;;;;;;54.20;1.53;;;;;;;;;;5051378;28;20985;-69
2023/08/18 11:35:39;;;;;;;54.57;1.40;;;;;;;;;;5051783;28;20540;-69
2023/08/18 11:38:06;;;;;;;54.70;1.60;;;;;;;;;;5051428;28;20915;-69
2023/08/18 11:40:38;;;;;;;54.70;1.60;;;;;;;;;;5051551;28;20444;-69
2023/08/18 11:43:09;;;;;;;55.13;2.23;;;;;;;;;;5051531;28;20441;-69
2023/08/18 11:45:37;;;;;;;54.33;1.93;;;;;;;;;;5051685;28;20454;-69
2023/08/18 11:48:05;;;;;;;54.57;1.90;;;;;;;;;;5051536;28;20478;-70
2023/08/18 11:50:33;;;;;;;54.07;1.53;;;;;;;;;;5051545;28;20448;-70
2023/08/18 11:53:00;;;;;;;54.50;1.80;;;;;;;;;;5051087;28;20447;-70
2023/08/18 11:55:31;;;;;;;54.70;2.10;;;;;;;;;;5051257;28;20499;-70
2023/08/18 11:57:58;;;;;;;54.00;1.40;;;;;;;;;;5051599;28;20874;-69
2023/08/18 12:00:35;;;;;;;54.90;2.40;;;;;;;;;;5051499;28;20440;-69
2023/08/18 12:03:03;;;;;;;54.40;1.67;;;;;;;;;;5051040;28;20452;-70
2023/08/18 12:05:30;;;;;;;54.30;1.67;;;;;;;;;;5051253;28;20487;-70
2023/08/18 12:07:58;;;;;;;54.90;2.03;;;;;;;;;;5051111;28;20535;-70
2023/08/18 12:10:25;;;;;;;54.07;1.67;;;;;;;;;;5051393;28;20444;-70
2023/08/18 12:12:53;;;;;;;54.17;1.73;;;;;;;;;;5051065;28;20833;-70
2023/08/18 12:15:21;;;;;;;54.37;2.10;;;;;;;;;;5051056;28;20484;-69
2023/08/18 12:17:49;;;;;;;53.87;1.40;;;;;;;;;;5051161;28;20452;-70
2023/08/18 12:20:19;;;;;;;54.23;1.83;;;;;;;;;;5051007;28;20444;-70
2023/08/18 12:22:46;;;;;;;54.47;1.70;;;;;;;;;;5050946;28;20517;-69
2023/08/18 12:25:13;;;;;;;54.17;1.73;;;;;;;;;;5050975;28;20972;-69
2023/08/18 12:27:41;;;;;;;54.40;2.10;;;;;;;;;;5051084;28;20440;-70
2023/08/18 12:30:09;;;;;;;54.50;1.90;;;;;;;;;;5051108;28;20456;-70
2023/08/18 12:32:36;;;;;;;54.20;1.70;;;;;;;;;;5050466;28;20496;-69
2023/08/18 12:35:04;;;;;;;54.03;2.00;;;;;;;;;;5050862;28;20559;-69
2023/08/18 12:37:32;;;;;;;54.20;1.63;;;;;;;;;;5051066;28;20456;-69
2023/08/18 12:39:59;;;;;;;54.27;1.70;;;;;;;;;;5051029;28;20815;-69
2023/08/18 12:42:26;;;;;;;54.50;1.70;;;;;;;;;;5050733;28;20539;-69
2023/08/18 12:44:54;;;;;;;54.23;1.83;;;;;;;;;;5050779;28;20885;-69
2023/08/18 12:47:21;;;;;;;54.17;1.87;;;;;;;;;;5050723;28;20449;-70
2023/08/18 12:49:48;;;;;;;54.00;1.70;;;;;;;;;;5053081;28;20958;-70
2023/08/18 12:52:16;;;;;;;53.87;1.87;;;;;;;;;;5054681;28;20446;-70
2023/08/18 12:54:43;;;;;;;54.00;1.87;;;;;;;;;;5054839;28;20475;-70
2023/08/18 12:57:10;;;;;;;53.80;1.80;;;;;;;;;;5054705;28;20448;-70
2023/08/18 12:59:38;;;;;;;54.27;1.83;;;;;;;;;;5054674;28;20448;-70
2023/08/18 13:02:05;;;;;;;54.07;2.07;;;;;;;;;;5054257;28;20448;-70
2023/08/18 13:04:32;;;;;;;54.20;1.80;;;;;;;;;;5054814;28;20488;-70
2023/08/18 13:06:59;;;;;;;54.17;1.70;;;;;;;;;;5054597;28;20840;-70
2023/08/18 13:09:28;;;;;;;53.87;1.87;;;;;;;;;;5054500;28;20451;-70
2023/08/18 13:11:55;;;;;;;53.80;2.10;;;;;;;;;;5054078;28;20451;-70
2023/08/18 13:14:22;;;;;;;58.93;2.27;;;;;;;;;;5054213;28;20460;-70
2023/08/18 13:16:49;;;;;;;54.20;1.90;;;;;;;;;;5054283;28;20972;-70
2023/08/18 13:19:17;;;;;;;53.90;1.90;;;;;;;;;;5054497;28;20440;-70
2023/08/18 13:21:44;;;;;;;54.10;1.67;;;;;;;;;;5053885;28;20454;-70
2023/08/18 13:24:11;;;;;;;54.10;1.77;;;;;;;;;;5054104;28;20480;-69
2023/08/18 13:26:39;;;;;;;54.27;1.63;;;;;;;;;;5054162;28;20447;-69
2023/08/18 13:29:08;;;;;;;54.47;1.57;;;;;;;;;;5054097;28;20447;-70
2023/08/18 13:31:35;;;;;;;54.20;1.80;;;;;;;;;;5054131;28;20452;-70
2023/08/18 13:34:02;;;;;;;54.07;1.90;;;;;;;;;;5054003;28;20841;-69
2023/08/18 13:36:29;;;;;;;54.53;1.80;;;;;;;;;;5053934;28;20448;-70
2023/08/18 13:38:56;;;;;;;54.37;1.60;;;;;;;;;;5053795;28;20970;-70
2023/08/18 13:41:24;;;;;;;54.07;1.60;;;;;;;;;;5053781;28;20784;-70
2023/08/18 13:43:53;;;;;;;54.07;1.70;;;;;;;;;;5053719;28;20846;-70
2023/08/18 13:46:20;;;;;;;55.80;1.70;;;;;;;;;;5054101;28;20452;-70
2023/08/18 13:48:47;;;;;;;53.87;1.97;;;;;;;;;;5053945;28;20440;-70
2023/08/18 13:51:14;;;;;;;54.80;1.80;;;;;;;;;;5053630;28;20440;-70
2023/08/18 13:53:41;;;;;;;54.00;1.70;;;;;;;;;;5053433;28;20567;-70
2023/08/18 13:56:08;;;;;;;53.57;1.93;;;;;;;;;;5053450;28;20444;-69
2023/08/18 13:58:35;;;;;;;54.30;1.97;;;;;;;;;;5053794;28;20448;-70
2023/08/18 14:01:04;;;;;;;53.57;1.77;;;;;;;;;;5053545;28;20443;-70
2023/08/18 14:03:31;;;;;;;54.50;1.70;;;;;;;;;;5053246;28;20514;-70
2023/08/18 14:05:58;;;;;;;55.87;3.13;;;;;;;;;;5053248;28;21000;-69
2023/08/18 14:08:25;;;;;;;53.93;1.43;;;;;;;;;;5053269;28;20452;-70
2023/08/18 14:10:53;;;;;;;56.63;2.30;;;;;;;;;;5053551;28;20440;-69
2023/08/18 14:13:20;;;;;;;54.30;1.70;;;;;;;;;;5053161;28;20464;-70
2023/08/18 14:15:47;;;;;;;54.47;1.77;;;;;;;;;;5053113;28;20455;-70
2023/08/18 14:18:16;;;;;;;53.30;1.50;;;;;;;;;;5053283;28;20449;-69
2023/08/18 14:20:44;;;;;;;54.10;1.73;;;;;;;;;;5053123;28;20448;-70
2023/08/18 14:23:11;;;;;;;53.30;1.87;;;;;;;;;;5052673;28;20452;-70
2023/08/18 14:25:39;;;;;;;54.40;1.57;;;;;;;;;;5053125;28;20488;-70
2023/08/18 14:28:06;;;;;;;54.20;1.70;;;;;;;;;;5053187;28;20514;-70
2023/08/18 14:30:33;;;;;;;54.17;1.83;;;;;;;;;;5053011;28;20454;-70
2023/08/18 14:33:02;;;;;;;54.30;1.73;;;;;;;;;;5052663;28;20937;-70